createdAt,value
2018-09-18T00:01:51.398Z,79.10
2018-09-18T00:04:22.202Z,79.30
2018-09-18T00:06:52.269Z,78.80
2018-09-18T00:09:21.862Z,78.10
2018-09-18T00:11:52.964Z,78.40
2018-09-18T00:14:21.854Z,79.00
2018-09-18T00:16:50.875Z,77.70
2018-09-18T00:19:23.942Z,77.70
2018-09-18T00:21:54.775Z,77.70
2018-09-18T00:24:24.167Z,78.10
2018-09-18T00:26:54.388Z,77.50
2018-09-18T00:29:24.249Z,78.10
2018-09-18T00:31:57.051Z,77.90
2018-09-18T00:34:25.925Z,78.50
2018-09-18T00:36:55.292Z,77.50
2018-09-18T00:39:25.006Z,78.40
2018-09-18T00:41:54.047Z,78.40
2018-09-18T00:44:23.396Z,79.10
2018-09-18T00:46:52.520Z,78.40
2018-09-18T00:49:22.387Z,79.10
2018-09-18T00:51:53.712Z,78.90
2018-09-18T00:54:23.223Z,79.00
2018-09-18T00:56:59.062Z,78.50
2018-09-18T00:59:27.989Z,78.20
2018-09-18T01:01:57.037Z,78.40
2018-09-18T01:04:26.075Z,78.70
2018-09-18T01:06:55.685Z,79.00
2018-09-18T01:09:24.985Z,78.70
2018-09-18T01:11:54.936Z,79.40
2018-09-18T01:14:24.916Z,78.60
2018-09-18T01:16:54.319Z,78.80
2018-09-18T01:19:23.726Z,78.00
2018-09-18T01:21:53.962Z,78.20
2018-09-18T01:24:23.044Z,78.60
2018-09-18T01:26:52.117Z,78.00
2018-09-18T01:29:21.171Z,79.00
2018-09-18T01:31:50.836Z,78.70
2018-09-18T01:34:20.969Z,79.10
2018-09-18T01:36:50.771Z,78.80
2018-09-18T01:39:19.674Z,79.40
2018-09-18T01:41:48.659Z,80.40
2018-09-18T01:44:17.582Z,80.50
2018-09-18T01:46:46.626Z,81.00
2018-09-18T01:49:16.384Z,80.30
2018-09-18T01:51:45.172Z,80.40
2018-09-18T01:54:13.938Z,80.60
2018-09-18T01:56:42.964Z,80.30
2018-09-18T01:59:12.142Z,79.90
2018-09-18T02:01:40.931Z,81.10
2018-09-18T02:04:09.578Z,80.60
2018-09-18T02:06:40.487Z,80.40
2018-09-18T02:09:11.128Z,80.60
2018-09-18T02:11:39.764Z,80.30
2018-09-18T02:14:08.712Z,80.40
2018-09-18T02:16:37.727Z,80.20
2018-09-18T02:19:06.599Z,79.90
2018-09-18T02:21:35.355Z,80.70
2018-09-18T02:24:04.275Z,80.80
2018-09-18T02:26:33.375Z,80.20
2018-09-18T02:29:02.738Z,81.70
2018-09-18T02:31:31.456Z,81.50
2018-09-18T02:34:00.481Z,81.40
2018-09-18T02:36:29.580Z,82.20
2018-09-18T02:38:58.927Z,81.90
2018-09-18T02:41:27.835Z,82.10
2018-09-18T02:43:56.863Z,82.20
2018-09-18T02:46:25.701Z,81.90
2018-09-18T02:48:54.646Z,82.40
2018-09-18T02:51:24.830Z,82.80
2018-09-18T02:53:53.730Z,82.20
2018-09-18T02:56:22.755Z,82.50
2018-09-18T02:58:52.222Z,82.00
2018-09-18T03:01:21.604Z,82.70
2018-09-18T03:03:50.382Z,82.00
2018-09-18T03:06:18.907Z,82.40
2018-09-18T03:08:48.126Z,82.50
2018-09-18T03:11:17.173Z,82.10
2018-09-18T03:13:45.818Z,82.80
2018-09-18T03:16:15.421Z,83.10
2018-09-18T03:18:44.574Z,83.70
2018-09-18T03:21:13.522Z,83.40
2018-09-18T03:23:42.349Z,83.90
2018-09-18T03:26:11.353Z,83.60
2018-09-18T03:28:40.381Z,83.20
2018-09-18T03:31:09.167Z,83.90
2018-09-18T03:33:38.407Z,83.10
2018-09-18T03:36:07.130Z,83.90
2018-09-18T03:38:36.043Z,83.00
2018-09-18T03:41:05.716Z,82.70
2018-09-18T03:43:34.496Z,82.80
2018-09-18T03:46:03.757Z,82.70
2018-09-18T03:48:32.911Z,84.10
2018-09-18T03:51:01.867Z,83.60
2018-09-18T03:53:30.693Z,83.80
2018-09-18T03:55:59.332Z,83.40
2018-09-18T03:58:28.843Z,83.80
2018-09-18T04:00:57.665Z,84.00
2018-09-18T04:03:27.319Z,84.00
2018-09-18T04:05:57.202Z,84.60
2018-09-18T04:08:25.953Z,84.00
2018-09-18T04:10:54.800Z,84.90
2018-09-18T04:13:23.535Z,84.60
2018-09-18T04:15:52.285Z,84.50
2018-09-18T04:18:23.587Z,85.40
2018-09-18T04:20:52.109Z,85.40
2018-09-18T04:23:20.906Z,85.70
2018-09-18T04:25:49.892Z,85.80
2018-09-18T04:28:18.678Z,85.50
2018-09-18T04:30:47.462Z,86.30
2018-09-18T04:33:16.224Z,86.70
2018-09-18T04:35:45.034Z,86.90
2018-09-18T04:38:13.922Z,86.80
2018-09-18T04:41:06.883Z,86.80
2018-09-18T04:57:19.238Z,87.10
2018-09-18T04:59:48.377Z,88.30
2018-09-18T05:02:17.410Z,88.60
2018-09-18T05:04:47.332Z,87.90
2018-09-18T05:07:17.241Z,88.30
2018-09-18T05:09:46.250Z,88.50
2018-09-18T05:12:23.923Z,88.40
2018-09-18T05:14:58.701Z,88.20
2018-09-18T05:17:37.442Z,89.00
2018-09-18T05:22:50.086Z,89.30
2018-09-18T05:30:51.498Z,89.50
2018-09-18T06:29:42.663Z,90.20
2018-09-18T06:32:11.927Z,88.80
2018-09-18T06:34:40.484Z,89.20
2018-09-18T06:37:09.404Z,89.90
2018-09-18T06:39:39.752Z,88.40
2018-09-18T06:42:22.892Z,88.50
2018-09-18T06:44:51.687Z,88.40
2018-09-18T06:47:20.154Z,87.90
2018-09-18T06:49:48.865Z,87.90
2018-09-18T06:52:17.267Z,88.10
2018-09-18T06:54:45.927Z,87.60
2018-09-18T06:57:14.575Z,87.70
2018-09-18T06:59:43.213Z,86.60
2018-09-18T07:02:11.759Z,86.00
2018-09-18T07:04:40.203Z,86.20
2018-09-18T07:07:08.839Z,86.00
2018-09-18T07:09:38.390Z,85.50
2018-09-18T07:12:06.905Z,85.40
2018-09-18T07:14:35.300Z,86.10
2018-09-18T07:17:04.276Z,85.40
2018-09-18T07:19:33.391Z,85.30
2018-09-18T07:22:01.926Z,85.20
2018-09-18T07:24:30.392Z,85.30
2018-09-18T07:26:59.013Z,85.60
2018-09-18T07:29:27.415Z,85.50
2018-09-18T07:31:56.137Z,85.90
2018-09-18T07:34:24.642Z,86.60
2018-09-18T07:36:53.364Z,87.30
2018-09-18T07:39:21.854Z,86.80
2018-09-18T07:44:38.689Z,87.90
2018-09-18T07:47:07.185Z,87.30
2018-09-18T07:49:36.071Z,87.50
2018-09-18T07:52:07.734Z,86.50
2018-09-18T07:54:36.366Z,87.10
2018-09-18T07:57:05.173Z,87.20
2018-09-18T07:59:34.476Z,87.60
2018-09-18T08:02:03.495Z,87.80
2018-09-18T08:04:32.046Z,87.60
2018-09-18T08:07:00.734Z,89.00
2018-09-18T08:09:29.221Z,90.10
2018-09-18T08:11:58.649Z,90.40
2018-09-18T08:14:27.202Z,90.50
2018-09-18T08:16:56.209Z,90.60
2018-09-18T08:19:24.993Z,90.90
2018-09-18T08:21:53.866Z,90.80
2018-09-18T08:24:22.606Z,90.90
2018-09-18T08:26:51.448Z,90.90
2018-09-18T08:29:20.133Z,90.90
2018-09-18T08:31:49.066Z,91.00
2018-09-18T08:34:20.553Z,90.80
2018-09-18T08:36:50.078Z,90.70
2018-09-18T08:39:19.583Z,90.60
2018-09-18T08:41:48.678Z,90.90
2018-09-18T08:44:18.783Z,90.90
2018-09-18T08:46:47.449Z,90.70
2018-09-18T08:49:16.877Z,90.60
2018-09-18T08:51:46.010Z,90.70
2018-09-18T08:54:15.167Z,90.70
2018-09-18T08:56:48.402Z,91.00
2018-09-18T08:59:19.808Z,91.10
2018-09-18T09:01:48.441Z,91.30
2018-09-18T09:04:18.829Z,91.30
2018-09-18T09:06:50.036Z,91.00
2018-09-18T09:09:20.463Z,91.10
2018-09-18T09:11:49.988Z,91.10
2018-09-18T09:14:19.692Z,91.00
2018-09-18T09:16:48.773Z,91.00
2018-09-18T09:19:17.820Z,91.00
2018-09-18T09:21:48.192Z,91.20
2018-09-18T09:24:17.203Z,91.20
2018-09-18T09:26:47.994Z,91.30
2018-09-18T09:29:26.123Z,91.20
2018-09-18T09:31:55.673Z,90.90
2018-09-18T09:34:25.314Z,90.70
2018-09-18T09:36:54.201Z,91.20
2018-09-18T09:39:24.165Z,90.70
2018-09-18T09:41:52.893Z,90.40
2018-09-18T09:44:21.991Z,90.30
2018-09-18T09:46:52.266Z,90.40
2018-09-18T09:49:22.715Z,90.20
2018-09-18T09:51:51.274Z,90.10
2018-09-18T09:54:23.528Z,90.30
2018-09-18T09:56:52.397Z,90.30
2018-09-18T09:59:24.240Z,90.40
2018-09-18T10:01:58.281Z,90.50
2018-09-18T10:04:26.858Z,90.20
2018-09-18T10:06:59.644Z,90.20
2018-09-18T10:09:34.036Z,90.10
2018-09-18T10:12:04.270Z,90.40
2018-09-18T10:14:33.079Z,90.20
2018-09-18T10:17:01.829Z,90.00
2018-09-18T10:19:31.192Z,90.20
2018-09-18T10:22:01.272Z,90.00
2018-09-18T10:24:30.113Z,89.80
2018-09-18T10:27:00.399Z,90.20
2018-09-18T10:29:31.084Z,89.60
2018-09-18T10:32:00.296Z,89.80
2018-09-18T10:34:29.264Z,88.90
2018-09-18T10:36:59.638Z,89.30
2018-09-18T10:39:33.262Z,89.00
2018-09-18T10:42:06.627Z,88.60
2018-09-18T10:44:36.808Z,87.60
2018-09-18T10:47:06.110Z,88.30
2018-09-18T10:49:38.431Z,87.00
2018-09-18T10:52:07.768Z,86.70
2018-09-18T10:54:39.593Z,87.40
2018-09-18T10:57:14.875Z,87.40
2018-09-18T10:59:49.688Z,86.60
2018-09-18T11:18:08.501Z,85.00
2018-09-18T11:20:37.972Z,85.10
2018-09-18T11:23:15.034Z,85.30
2018-09-18T11:25:46.709Z,83.40
2018-09-18T11:28:15.969Z,82.00
2018-09-18T11:30:44.598Z,82.20
2018-09-18T11:33:14.208Z,83.30
2018-09-18T11:35:52.419Z,79.90
2018-09-18T11:38:22.095Z,77.90
2018-09-18T11:41:05.296Z,72.80
2018-09-18T11:43:39.252Z,71.50
2018-09-18T11:46:08.005Z,71.90
2018-09-18T11:51:47.496Z,77.20
2018-09-18T11:59:31.425Z,75.40
2018-09-18T12:02:01.628Z,74.70
2018-09-18T12:07:22.739Z,71.80
2018-09-18T12:10:01.629Z,70.10
2018-09-18T12:12:32.393Z,71.40
2018-09-18T12:15:01.178Z,76.30
2018-09-18T12:17:39.992Z,78.80
2018-09-18T12:20:12.781Z,75.60
2018-09-18T12:22:48.025Z,71.30
2018-09-18T12:25:18.921Z,67.00
2018-09-18T12:28:00.431Z,66.30
2018-09-18T12:30:42.418Z,63.50
2018-09-18T12:33:16.665Z,61.60
2018-09-18T12:35:45.866Z,63.50
2018-09-18T12:41:19.362Z,60.90
2018-09-18T12:43:51.630Z,60.90
2018-09-18T12:49:08.900Z,59.80
2018-09-18T12:52:07.319Z,59.40
2018-09-18T12:54:48.951Z,63.40
2018-09-18T12:57:45.568Z,63.30
2018-09-18T13:00:46.858Z,61.50
2018-09-18T14:10:11.479Z,66.20
2018-09-18T14:12:40.043Z,61.40
2018-09-18T14:15:11.277Z,62.70
2018-09-18T14:17:41.086Z,64.00
2018-09-18T14:20:10.796Z,63.70
2018-09-18T14:22:39.321Z,63.80
2018-09-18T14:25:08.015Z,62.90
2018-09-18T14:27:37.250Z,62.00
2018-09-18T14:30:07.865Z,63.20
2018-09-18T14:32:36.401Z,63.80
2018-09-18T14:35:04.793Z,65.10
2018-09-18T14:37:33.330Z,63.80
2018-09-18T14:43:12.161Z,62.50
2018-09-18T14:45:51.661Z,62.60
2018-09-18T14:51:23.438Z,62.20
2018-09-18T14:54:02.262Z,65.30
2018-09-18T14:56:48.166Z,64.20
2018-09-18T14:59:17.628Z,63.90
2018-09-18T15:01:47.486Z,67.00
2018-09-18T15:04:15.897Z,67.40
2018-09-18T15:06:44.371Z,69.20
2018-09-18T15:09:12.954Z,69.40
2018-09-18T15:11:41.435Z,70.00
2018-09-18T15:14:10.756Z,74.20
2018-09-18T15:16:39.157Z,76.30
2018-09-18T15:19:08.583Z,78.60
2018-09-18T15:21:37.207Z,80.40
2018-09-18T15:24:05.528Z,81.80
2018-09-18T15:26:34.888Z,82.90
2018-09-18T15:31:31.492Z,82.50
2018-09-18T15:37:23.442Z,84.40
2018-09-18T15:42:50.407Z,83.80
2018-09-18T15:45:35.966Z,83.80
2018-09-18T15:48:07.077Z,84.70
2018-09-18T15:50:36.351Z,88.00
2018-09-18T15:53:14.941Z,84.70
2018-09-18T16:03:39.871Z,83.90
2018-09-18T16:06:08.590Z,85.10
2018-09-18T16:08:37.215Z,86.10
2018-09-18T16:11:12.490Z,85.40
2018-09-18T16:13:42.012Z,86.60
2018-09-18T16:25:17.110Z,87.90
2018-09-18T16:27:48.469Z,90.30
2018-09-18T16:32:13.863Z,89.70
2018-09-18T16:37:16.239Z,90.10
2018-09-18T16:53:44.885Z,90.90
2018-09-18T16:56:13.319Z,92.30
2018-09-18T17:01:09.826Z,92.40
2018-09-18T17:03:38.408Z,92.90
2018-09-18T17:06:06.929Z,93.10
2018-09-18T17:08:36.558Z,93.30
2018-09-18T17:11:05.496Z,93.60
2018-09-18T17:13:33.925Z,93.60
2018-09-18T17:16:02.457Z,93.60
2018-09-18T17:18:30.989Z,94.00
2018-09-18T17:20:59.344Z,94.00
2018-09-18T17:23:28.188Z,94.00
2018-09-18T17:25:56.814Z,94.00
2018-09-18T17:28:25.406Z,94.00
2018-09-18T17:30:54.080Z,94.30
2018-09-18T17:33:22.545Z,94.20
2018-09-18T17:35:51.041Z,94.40
2018-09-18T17:40:47.564Z,94.20
2018-09-18T17:43:15.869Z,94.60
2018-09-18T17:45:44.368Z,94.80
2018-09-18T17:48:12.891Z,94.50
2018-09-18T17:50:45.224Z,94.50
2018-09-18T17:53:14.463Z,94.40
2018-09-18T17:58:20.522Z,93.70
2018-09-18T18:00:50.059Z,93.80
2018-09-18T18:03:18.846Z,93.80
2018-09-18T18:05:47.437Z,93.80
2018-09-18T18:10:44.251Z,92.70
2018-09-18T18:13:14.642Z,92.90
2018-09-18T18:15:43.441Z,93.00
2018-09-18T18:18:13.305Z,93.50
2018-09-18T18:20:41.940Z,93.00
2018-09-18T18:26:11.098Z,93.40
2018-09-18T18:28:46.354Z,93.80
2018-09-18T18:31:28.272Z,94.00
2018-09-18T18:50:48.394Z,94.40
2018-09-18T18:53:38.606Z,94.90
2018-09-18T19:20:36.635Z,95.20
2018-09-18T19:23:47.095Z,95.50
2018-09-18T19:26:26.216Z,95.50
2018-09-18T19:29:01.258Z,95.60
2018-09-18T19:31:31.625Z,96.00
2018-09-18T19:58:36.294Z,96.10
2018-09-18T20:01:06.591Z,96.20
2018-09-18T20:03:35.546Z,96.20
2018-09-18T20:06:06.205Z,96.40
2018-09-18T20:08:34.873Z,96.30
2018-09-18T20:11:08.413Z,96.20
2018-09-18T20:13:39.486Z,96.70
2018-09-18T20:16:10.702Z,96.30
2018-09-18T20:18:42.691Z,96.20
2018-09-18T20:21:11.547Z,96.40
2018-09-18T20:23:40.888Z,96.10
2018-09-18T20:26:10.296Z,96.20
2018-09-18T20:28:44.273Z,96.20
2018-09-18T20:31:13.831Z,96.10
2018-09-18T20:33:42.329Z,96.00
2018-09-18T20:36:11.090Z,96.10
2018-09-18T20:38:39.726Z,95.80
2018-09-18T20:41:08.244Z,96.00
2018-09-18T20:43:36.736Z,95.90
2018-09-18T20:46:05.466Z,95.90
2018-09-18T20:48:33.932Z,95.90
2018-09-18T20:51:02.640Z,95.60
2018-09-18T20:53:31.247Z,95.70
2018-09-18T20:55:59.707Z,95.60
2018-09-18T20:58:28.270Z,95.80
2018-09-18T21:00:56.904Z,96.10
2018-09-18T21:03:25.427Z,95.50
2018-09-18T21:05:54.155Z,95.80
2018-09-18T21:08:22.768Z,95.90
2018-09-18T21:10:51.370Z,95.90
2018-09-18T21:13:20.041Z,96.00
2018-09-18T21:15:48.894Z,96.10
2018-09-18T21:18:17.544Z,95.90
2018-09-18T21:20:46.123Z,95.80
2018-09-18T21:23:15.667Z,95.80
2018-09-18T21:26:00.498Z,95.80
2018-09-18T21:28:29.845Z,95.90
2018-09-18T21:30:59.016Z,95.90
2018-09-18T21:33:27.789Z,95.80
2018-09-18T21:35:56.476Z,95.60
2018-09-18T21:38:25.250Z,95.80
2018-09-18T21:40:53.940Z,95.90
2018-09-18T21:43:23.913Z,95.90
2018-09-18T21:45:52.712Z,95.80
2018-09-18T21:48:21.166Z,95.90
2018-09-18T21:50:49.839Z,95.80
2018-09-18T21:53:18.538Z,95.80
2018-09-18T21:55:47.095Z,95.80
2018-09-18T21:58:15.881Z,95.80
2018-09-18T22:00:44.423Z,95.70
2018-09-18T22:03:12.993Z,95.80
2018-09-18T22:05:41.499Z,95.70
2018-09-18T22:08:10.488Z,95.70
2018-09-18T22:10:39.318Z,95.70
2018-09-18T22:13:07.743Z,95.50
2018-09-18T22:15:36.117Z,95.40
2018-09-18T22:18:04.899Z,95.50
2018-09-18T22:20:39.797Z,95.40
2018-09-18T22:23:08.520Z,95.30
2018-09-18T22:25:37.069Z,95.40
2018-09-18T22:28:05.442Z,95.60
2018-09-18T22:30:33.777Z,95.70
2018-09-18T22:33:02.302Z,95.90
2018-09-18T22:35:30.973Z,95.70
2018-09-18T22:38:09.430Z,95.80
2018-09-18T22:40:38.039Z,95.80
2018-09-18T22:43:06.632Z,96.10
2018-09-18T22:45:35.092Z,96.20
2018-09-18T22:48:03.488Z,96.30
2018-09-18T22:50:31.948Z,96.50
2018-09-18T22:53:00.403Z,96.60
2018-09-18T22:55:28.781Z,96.60
2018-09-18T22:57:57.315Z,96.90
2018-09-18T23:00:25.926Z,96.70
2018-09-18T23:02:54.859Z,96.90
2018-09-18T23:05:23.756Z,97.00
2018-09-18T23:07:52.176Z,97.20
2018-09-18T23:10:20.787Z,97.20
2018-09-18T23:12:49.245Z,97.30
2018-09-18T23:15:17.752Z,97.40
2018-09-18T23:17:46.344Z,97.60
2018-09-18T23:20:14.717Z,97.60
2018-09-18T23:22:43.056Z,97.60
2018-09-18T23:25:11.531Z,97.70
2018-09-18T23:27:39.921Z,97.90
2018-09-18T23:30:08.325Z,98.00
2018-09-18T23:32:36.634Z,98.20
2018-09-18T23:35:05.178Z,98.20
2018-09-18T23:37:33.596Z,98.20
2018-09-18T23:40:02.041Z,98.40
2018-09-18T23:42:30.432Z,98.70
2018-09-18T23:44:58.844Z,98.90
2018-09-18T23:47:27.217Z,98.70
2018-09-18T23:49:55.654Z,98.90
2018-09-18T23:52:24.004Z,99.20
2018-09-18T23:54:52.449Z,99.20
2018-09-18T23:57:20.954Z,99.20
2018-09-18T23:59:49.272Z,99.30
